Time;durP1;ratioP1;P1;durP2;ratioP2;P2;SDS_P1;SDS_P2;PMS_P1;PMS_P2;Temp;Humidity;BMP_temperature;BMP_pressure;BME280_temperature;BME280_humidity;BME280_pressure;Samples;Min_cycle;Max_cycle;Signal;HPM_P1;HPM_P2
2023/12/28 00:01:25;;;;;;;11.47;7.60;;;;;;;;;;5048698;28;20524;-69
2023/12/28 00:03:51;;;;;;;5.30;4.90;;;;;;;;;;5049841;28;20537;-68
2023/12/28 00:06:19;;;;;;;5.40;4.60;;;;;;;;;;5051514;28;20548;-68
2023/12/28 00:08:46;;;;;;;6.03;4.00;;;;;;;;;;5047569;28;20461;-68
2023/12/28 00:11:13;;;;;;;3.63;3.33;;;;;;;;;;5049335;28;20460;-70
2023/12/28 00:13:39;;;;;;;3.60;3.30;;;;;;;;;;5052566;28;20460;-70
2023/12/28 00:16:06;;;;;;;3.03;2.83;;;;;;;;;;5053921;28;20463;-70
2023/12/28 00:18:33;;;;;;;3.47;3.17;;;;;;;;;;5048754;28;20531;-70
2023/12/28 00:20:59;;;;;;;5.00;3.03;;;;;;;;;;5057819;28;20516;-69
2023/12/28 00:23:28;;;;;;;2.70;2.50;;;;;;;;;;5053529;28;20479;-69
2023/12/28 00:25:56;;;;;;;6.23;3.00;;;;;;;;;;5054205;28;20461;-68
2023/12/28 00:28:22;;;;;;;2.10;2.00;;;;;;;;;;5056205;28;20829;-69
2023/12/28 00:30:48;;;;;;;2.57;2.17;;;;;;;;;;5049347;28;20473;-69
2023/12/28 00:33:15;;;;;;;3.33;1.90;;;;;;;;;;5056215;28;20476;-69
2023/12/28 00:35:41;;;;;;;2.57;2.37;;;;;;;;;;5053979;28;20541;-70
2023/12/28 00:38:07;;;;;;;2.40;2.20;;;;;;;;;;5055807;28;20524;-70
2023/12/28 00:40:34;;;;;;;3.27;2.40;;;;;;;;;;5056838;28;20444;-70
2023/12/28 00:43:02;;;;;;;6.60;2.60;;;;;;;;;;5056025;28;20536;-70
2023/12/28 00:45:28;;;;;;;2.83;2.13;;;;;;;;;;5054093;28;20518;-70
2023/12/28 00:47:56;;;;;;;2.50;2.30;;;;;;;;;;5050455;28;20539;-70
2023/12/28 00:50:23;;;;;;;3.63;2.33;;;;;;;;;;5056032;28;20467;-70
2023/12/28 00:52:49;;;;;;;4.63;2.60;;;;;;;;;;5054873;28;20543;-68
2023/12/28 00:55:15;;;;;;;4.40;2.07;;;;;;;;;;5056987;28;20499;-69
2023/12/28 00:57:42;;;;;;;3.20;1.90;;;;;;;;;;5056424;28;20489;-69
2023/12/28 01:00:10;;;;;;;3.00;2.43;;;;;;;;;;5054543;28;21132;-69
2023/12/28 01:02:36;;;;;;;3.60;2.40;;;;;;;;;;5053921;28;20508;-69
2023/12/28 01:05:03;;;;;;;2.20;1.97;;;;;;;;;;5058943;28;20464;-69
2023/12/28 01:07:30;;;;;;;3.53;2.40;;;;;;;;;;5069910;28;20468;-69
2023/12/28 01:09:56;;;;;;;4.20;2.40;;;;;;;;;;5066179;28;20483;-68
2023/12/28 01:12:23;;;;;;;2.97;2.40;;;;;;;;;;5076378;28;20500;-68
2023/12/28 01:14:49;;;;;;;2.97;2.57;;;;;;;;;;5072770;28;20448;-69
2023/12/28 01:17:18;;;;;;;4.10;2.37;;;;;;;;;;5073923;28;20483;-69
2023/12/28 01:19:44;;;;;;;3.17;1.90;;;;;;;;;;5068152;28;20784;-70
2023/12/28 01:22:10;;;;;;;2.73;2.33;;;;;;;;;;5075453;28;20527;-70
2023/12/28 01:24:37;;;;;;;3.00;2.33;;;;;;;;;;5070812;28;20476;-69
2023/12/28 01:27:03;;;;;;;5.90;2.40;;;;;;;;;;5070723;28;20472;-70
2023/12/28 01:29:30;;;;;;;5.30;2.97;;;;;;;;;;5069745;28;20463;-69
2023/12/28 01:31:56;;;;;;;4.00;2.40;;;;;;;;;;5072441;28;20507;-68
2023/12/28 01:34:24;;;;;;;3.93;2.97;;;;;;;;;;5070766;28;20527;-68
2023/12/28 01:36:50;;;;;;;2.53;2.20;;;;;;;;;;5072731;28;20479;-70
2023/12/28 01:39:18;;;;;;;3.10;2.77;;;;;;;;;;5067543;28;20539;-69
2023/12/28 01:41:45;;;;;;;3.30;2.50;;;;;;;;;;5070785;28;20515;-69
2023/12/28 01:44:11;;;;;;;2.67;2.47;;;;;;;;;;5074791;28;20506;-69
2023/12/28 01:46:37;;;;;;;2.17;1.93;;;;;;;;;;5072429;28;20456;-68
2023/12/28 01:49:04;;;;;;;7.53;2.90;;;;;;;;;;5072047;28;20511;-69
2023/12/28 01:51:33;;;;;;;3.20;2.90;;;;;;;;;;5074799;28;20520;-67
2023/12/28 01:53:59;;;;;;;3.13;2.43;;;;;;;;;;5072708;28;20487;-69
2023/12/28 01:56:26;;;;;;;4.17;3.60;;;;;;;;;;5075780;28;20539;-69
2023/12/28 01:58:53;;;;;;;2.83;2.63;;;;;;;;;;5075229;28;20456;-70
2023/12/28 02:01:19;;;;;;;4.50;2.47;;;;;;;;;;5074933;28;20515;-70
2023/12/28 02:03:46;;;;;;;3.20;2.90;;;;;;;;;;5075220;28;20539;-70
2023/12/28 02:06:15;;;;;;;4.23;2.77;;;;;;;;;;5063257;28;20603;-70
2023/12/28 02:08:43;;;;;;;3.17;2.40;;;;;;;;;;5052877;28;20456;-69
2023/12/28 02:11:10;;;;;;;3.47;2.77;;;;;;;;;;5043688;28;20501;-68
2023/12/28 02:13:36;;;;;;;10.20;3.50;;;;;;;;;;5052587;28;20561;-69
2023/12/28 02:16:04;;;;;;;2.80;2.60;;;;;;;;;;5049953;28;20928;-69
2023/12/28 02:18:34;;;;;;;3.17;2.50;;;;;;;;;;5050424;28;20516;-70
2023/12/28 02:21:03;;;;;;;3.70;2.70;;;;;;;;;;5053765;28;20468;-69
2023/12/28 02:23:29;;;;;;;4.40;3.40;;;;;;;;;;5054402;28;20883;-70
2023/12/28 02:25:57;;;;;;;5.33;2.63;;;;;;;;;;5053322;28;20535;-69
2023/12/28 02:28:23;;;;;;;4.20;3.00;;;;;;;;;;5053659;28;20517;-70
2023/12/28 02:30:50;;;;;;;3.10;2.80;;;;;;;;;;5054684;28;20476;-69
2023/12/28 02:33:19;;;;;;;3.07;2.70;;;;;;;;;;5049712;28;20606;-69
2023/12/28 02:35:48;;;;;;;3.40;3.03;;;;;;;;;;5053052;28;20481;-68
2023/12/28 02:38:15;;;;;;;7.30;2.87;;;;;;;;;;5053128;28;20460;-68
2023/12/28 02:40:43;;;;;;;2.60;2.40;;;;;;;;;;5053553;28;20512;-68
2023/12/28 02:43:11;;;;;;;3.00;2.80;;;;;;;;;;5055030;28;21257;-67
2023/12/28 02:45:38;;;;;;;3.13;2.83;;;;;;;;;;5054086;28;20563;-67
2023/12/28 02:48:05;;;;;;;6.30;2.93;;;;;;;;;;5053245;28;20904;-69
2023/12/28 02:50:32;;;;;;;5.27;2.67;;;;;;;;;;5044741;28;20500;-69
2023/12/28 02:52:58;;;;;;;3.00;2.70;;;;;;;;;;5046532;28;20911;-69
2023/12/28 02:55:25;;;;;;;5.13;2.63;;;;;;;;;;5047595;28;20481;-69
2023/12/28 02:57:52;;;;;;;3.63;3.10;;;;;;;;;;5053334;28;20932;-69
2023/12/28 03:00:19;;;;;;;3.40;3.10;;;;;;;;;;5054335;28;20457;-68
2023/12/28 03:02:46;;;;;;;3.37;2.40;;;;;;;;;;5051051;28;20545;-68
2023/12/28 03:05:12;;;;;;;2.83;2.63;;;;;;;;;;5059296;28;20559;-67
2023/12/28 03:07:40;;;;;;;2.63;2.27;;;;;;;;;;5066143;28;20524;-68
2023/12/28 03:10:07;;;;;;;4.30;2.80;;;;;;;;;;5072782;28;20462;-69
2023/12/28 03:12:33;;;;;;;2.70;2.47;;;;;;;;;;5078669;28;20499;-68
2023/12/28 03:15:00;;;;;;;2.93;2.73;;;;;;;;;;5072770;28;20519;-69
2023/12/28 03:17:28;;;;;;;3.50;3.10;;;;;;;;;;5072933;28;20445;-69
2023/12/28 03:19:55;;;;;;;3.57;2.40;;;;;;;;;;5075672;28;20967;-69
2023/12/28 03:22:21;;;;;;;3.37;3.07;;;;;;;;;;5077019;28;20998;-68
2023/12/28 03:24:48;;;;;;;5.40;3.17;;;;;;;;;;5072542;28;20530;-69
2023/12/28 03:27:15;;;;;;;3.30;2.80;;;;;;;;;;5075914;28;20469;-69
2023/12/28 03:29:41;;;;;;;3.40;2.93;;;;;;;;;;5074807;28;20539;-69
2023/12/28 03:32:08;;;;;;;6.33;3.27;;;;;;;;;;5072943;28;20513;-68
2023/12/28 03:34:36;;;;;;;3.77;3.23;;;;;;;;;;5075883;28;20452;-68
2023/12/28 03:37:02;;;;;;;3.60;3.30;;;;;;;;;;5071461;28;20436;-68
2023/12/28 03:39:29;;;;;;;3.30;2.73;;;;;;;;;;5074493;28;20507;-68
2023/12/28 03:41:55;;;;;;;5.03;3.50;;;;;;;;;;5074554;28;20535;-68
2023/12/28 03:44:22;;;;;;;3.57;3.27;;;;;;;;;;5072702;28;20513;-68
2023/12/28 03:46:48;;;;;;;3.20;2.83;;;;;;;;;;5071055;28;20448;-69
2023/12/28 03:49:16;;;;;;;3.37;3.07;;;;;;;;;;5076991;28;20532;-67
2023/12/28 03:51:43;;;;;;;4.03;2.70;;;;;;;;;;5069930;28;20519;-69
2023/12/28 03:54:10;;;;;;;4.93;3.30;;;;;;;;;;5070130;28;20531;-69
2023/12/28 03:56:39;;;;;;;3.10;2.70;;;;;;;;;;5072018;28;20945;-68
2023/12/28 03:59:06;;;;;;;3.60;3.07;;;;;;;;;;5071704;28;20452;-69
2023/12/28 04:01:32;;;;;;;3.23;2.93;;;;;;;;;;5078210;28;20542;-68
2023/12/28 04:03:58;;;;;;;4.53;2.80;;;;;;;;;;5075167;28;20499;-69
2023/12/28 04:06:25;;;;;;;4.20;2.57;;;;;;;;;;5077208;28;20471;-70
2023/12/28 04:08:52;;;;;;;2.80;2.60;;;;;;;;;;5076737;28;20491;-70
2023/12/28 04:11:19;;;;;;;3.50;3.20;;;;;;;;;;5074206;28;20517;-70
2023/12/28 04:13:45;;;;;;;2.80;2.60;;;;;;;;;;5075744;28;20523;-70
2023/12/28 04:16:13;;;;;;;3.10;2.77;;;;;;;;;;5071035;28;20471;-69
2023/12/28 04:18:39;;;;;;;4.60;3.53;;;;;;;;;;5077344;28;21034;-70
2023/12/28 04:21:08;;;;;;;3.43;2.70;;;;;;;;;;5077077;28;20941;-69
2023/12/28 04:23:35;;;;;;;3.30;3.00;;;;;;;;;;5076516;28;20484;-67
2023/12/28 04:26:02;;;;;;;4.13;3.13;;;;;;;;;;5074267;28;20536;-69
2023/12/28 04:28:29;;;;;;;4.37;3.40;;;;;;;;;;5071640;28;20444;-68
2023/12/28 04:30:56;;;;;;;3.73;3.20;;;;;;;;;;5066860;28;20487;-68
2023/12/28 04:33:22;;;;;;;5.00;2.93;;;;;;;;;;5064013;28;20492;-69
2023/12/28 04:35:48;;;;;;;3.43;3.00;;;;;;;;;;5069002;28;20472;-68
2023/12/28 04:38:14;;;;;;;3.83;3.43;;;;;;;;;;5071832;28;21189;-67
2023/12/28 04:40:41;;;;;;;3.00;2.80;;;;;;;;;;5074794;28;20701;-68
2023/12/28 04:43:09;;;;;;;3.27;2.97;;;;;;;;;;5076559;28;20444;-69
2023/12/28 04:45:35;;;;;;;3.20;2.57;;;;;;;;;;5073975;28;20543;-69
2023/12/28 04:48:02;;;;;;;3.77;2.77;;;;;;;;;;5069573;28;20551;-69
2023/12/28 04:50:28;;;;;;;2.30;2.10;;;;;;;;;;5073637;28;20448;-69
2023/12/28 04:52:54;;;;;;;3.30;3.00;;;;;;;;;;5073963;28;20490;-68
2023/12/28 04:55:21;;;;;;;3.83;2.87;;;;;;;;;;5076564;28;20893;-69
2023/12/28 04:57:47;;;;;;;2.50;2.30;;;;;;;;;;5072637;28;21053;-69
2023/12/28 05:00:15;;;;;;;5.00;3.33;;;;;;;;;;5071534;28;20884;-68
2023/12/28 05:02:41;;;;;;;4.70;3.10;;;;;;;;;;5073218;28;20520;-67
2023/12/28 05:05:11;;;;;;;3.67;3.37;;;;;;;;;;5075752;28;20527;-67
2023/12/28 05:07:38;;;;;;;3.27;2.87;;;;;;;;;;5073653;28;20464;-69
2023/12/28 05:10:05;;;;;;;4.30;3.83;;;;;;;;;;5071786;28;20485;-69
2023/12/28 05:12:31;;;;;;;2.90;2.70;;;;;;;;;;5073171;28;20456;-67
2023/12/28 05:14:58;;;;;;;3.07;2.77;;;;;;;;;;5072383;28;20523;-69
2023/12/28 05:17:25;;;;;;;2.87;2.63;;;;;;;;;;5072252;28;20456;-69
2023/12/28 05:19:52;;;;;;;3.10;2.90;;;;;;;;;;5074471;28;20480;-69
2023/12/28 05:22:18;;;;;;;2.77;2.53;;;;;;;;;;5064930;28;20444;-69
2023/12/28 05:24:44;;;;;;;3.17;2.90;;;;;;;;;;5064249;28;20529;-68
2023/12/28 05:27:11;;;;;;;4.77;3.50;;;;;;;;;;5072746;28;20481;-69
2023/12/28 05:29:37;;;;;;;4.07;3.67;;;;;;;;;;5073048;28;20490;-69
2023/12/28 05:32:04;;;;;;;8.60;3.70;;;;;;;;;;5075235;28;20468;-69
2023/12/28 05:34:31;;;;;;;4.90;3.17;;;;;;;;;;5073463;28;20510;-70
2023/12/28 05:36:58;;;;;;;2.60;2.40;;;;;;;;;;5074127;28;20494;-69
2023/12/28 05:39:24;;;;;;;3.33;3.03;;;;;;;;;;5061853;28;20890;-70
2023/12/28 05:41:50;;;;;;;4.73;3.00;;;;;;;;;;5072520;28;20448;-69
2023/12/28 05:44:17;;;;;;;3.50;2.43;;;;;;;;;;5074468;28;20463;-69
2023/12/28 05:46:43;;;;;;;3.50;3.20;;;;;;;;;;5075107;28;20483;-70
2023/12/28 05:49:10;;;;;;;3.07;2.87;;;;;;;;;;5071752;28;21203;-69
2023/12/28 05:51:41;;;;;;;2.90;2.70;;;;;;;;;;5071979;28;20474;-69
2023/12/28 05:54:07;;;;;;;2.67;2.47;;;;;;;;;;5072790;28;20483;-67
2023/12/28 05:56:33;;;;;;;4.93;3.13;;;;;;;;;;5072021;28;20531;-68
2023/12/28 05:59:00;;;;;;;3.73;2.80;;;;;;;;;;5071776;28;21135;-69
2023/12/28 06:01:27;;;;;;;3.17;2.67;;;;;;;;;;5073378;28;20531;-68
2023/12/28 06:03:53;;;;;;;3.57;2.70;;;;;;;;;;5074473;28;20486;-68
2023/12/28 06:06:20;;;;;;;4.93;2.83;;;;;;;;;;5055395;28;20573;-69
2023/12/28 06:08:48;;;;;;;4.00;3.20;;;;;;;;;;5048716;28;21262;-68
2023/12/28 06:11:14;;;;;;;4.03;2.50;;;;;;;;;;5052729;28;20495;-68
2023/12/28 06:13:41;;;;;;;4.07;2.43;;;;;;;;;;5052709;28;21067;-70
2023/12/28 06:16:07;;;;;;;3.10;2.60;;;;;;;;;;5052290;28;20441;-69
2023/12/28 06:18:33;;;;;;;3.27;2.70;;;;;;;;;;5051333;28;20717;-69
2023/12/28 06:21:00;;;;;;;4.33;4.00;;;;;;;;;;5052831;28;20441;-69
2023/12/28 06:23:26;;;;;;;5.50;2.90;;;;;;;;;;5054420;28;20483;-70
2023/12/28 06:25:54;;;;;;;3.13;2.90;;;;;;;;;;5048270;28;20497;-70
2023/12/28 06:28:20;;;;;;;2.90;2.70;;;;;;;;;;5052718;28;20452;-70
2023/12/28 06:30:47;;;;;;;3.10;2.90;;;;;;;;;;5048255;28;20548;-71
2023/12/28 06:33:13;;;;;;;3.03;2.70;;;;;;;;;;5055811;28;20544;-68
2023/12/28 06:35:40;;;;;;;3.23;2.57;;;;;;;;;;5054260;28;20543;-70
2023/12/28 06:38:06;;;;;;;4.33;3.33;;;;;;;;;;5058454;28;20488;-69
2023/12/28 06:40:32;;;;;;;4.10;2.87;;;;;;;;;;5058472;28;20539;-70
2023/12/28 06:43:00;;;;;;;4.63;2.90;;;;;;;;;;5054230;28;20568;-70
2023/12/28 06:45:27;;;;;;;3.07;2.87;;;;;;;;;;5057601;28;20536;-70
2023/12/28 06:47:54;;;;;;;3.93;3.57;;;;;;;;;;5057139;28;20457;-70
2023/12/28 06:50:20;;;;;;;4.47;2.90;;;;;;;;;;5056315;28;20513;-70
2023/12/28 06:52:46;;;;;;;2.80;2.60;;;;;;;;;;5052738;28;20536;-69
2023/12/28 06:55:13;;;;;;;3.47;3.17;;;;;;;;;;5046605;28;20559;-70
2023/12/28 06:57:39;;;;;;;4.00;3.20;;;;;;;;;;5053884;28;20500;-69
2023/12/28 07:00:08;;;;;;;3.10;2.80;;;;;;;;;;5058757;28;20468;-69
2023/12/28 07:02:34;;;;;;;4.80;2.70;;;;;;;;;;5056379;28;20518;-70
2023/12/28 07:05:01;;;;;;;3.90;3.47;;;;;;;;;;5052749;28;20495;-69
2023/12/28 07:07:27;;;;;;;3.30;3.10;;;;;;;;;;5078508;28;20468;-70
2023/12/28 07:09:54;;;;;;;6.47;3.23;;;;;;;;;;5077266;28;20533;-69
2023/12/28 07:12:22;;;;;;;5.43;3.20;;;;;;;;;;5070355;28;20449;-69
2023/12/28 07:14:48;;;;;;;3.50;3.20;;;;;;;;;;5071371;28;20502;-69
2023/12/28 07:17:17;;;;;;;4.67;4.27;;;;;;;;;;5072995;28;20523;-69
2023/12/28 07:19:43;;;;;;;2.53;2.33;;;;;;;;;;5073513;28;20499;-69
2023/12/28 07:22:10;;;;;;;3.60;2.97;;;;;;;;;;5076469;28;20475;-70
2023/12/28 07:24:36;;;;;;;3.47;3.17;;;;;;;;;;5076855;28;21145;-69
2023/12/28 07:27:02;;;;;;;2.60;2.40;;;;;;;;;;5079122;28;20482;-69
2023/12/28 07:29:29;;;;;;;3.00;2.50;;;;;;;;;;5078145;28;20491;-70
2023/12/28 07:31:55;;;;;;;4.50;4.10;;;;;;;;;;5079763;28;20519;-69
2023/12/28 07:34:23;;;;;;;4.10;3.80;;;;;;;;;;5075670;28;20547;-69
2023/12/28 07:36:49;;;;;;;4.00;3.70;;;;;;;;;;5073606;28;20480;-69
2023/12/28 07:39:16;;;;;;;4.23;3.93;;;;;;;;;;5071224;28;20452;-69
2023/12/28 07:41:42;;;;;;;4.40;4.10;;;;;;;;;;5076615;28;20464;-68
2023/12/28 07:44:08;;;;;;;7.93;3.60;;;;;;;;;;5078735;28;20495;-68
2023/12/28 07:46:35;;;;;;;3.57;2.97;;;;;;;;;;5076704;28;20450;-69
2023/12/28 07:49:01;;;;;;;7.13;5.80;;;;;;;;;;5074442;28;20508;-68
2023/12/28 07:51:29;;;;;;;6.83;6.43;;;;;;;;;;5078587;28;20480;-68
2023/12/28 07:53:55;;;;;;;5.30;5.10;;;;;;;;;;5073720;28;20522;-68
2023/12/28 07:56:21;;;;;;;3.90;3.70;;;;;;;;;;5078134;28;20527;-67
2023/12/28 07:58:48;;;;;;;3.77;3.13;;;;;;;;;;5071499;28;20460;-67
2023/12/28 08:01:14;;;;;;;3.40;2.87;;;;;;;;;;5074043;28;20467;-69
2023/12/28 08:03:41;;;;;;;4.50;4.17;;;;;;;;;;5068441;28;20520;-69
2023/12/28 08:06:08;;;;;;;7.27;3.90;;;;;;;;;;5077178;28;20523;-69
2023/12/28 08:08:37;;;;;;;4.90;3.77;;;;;;;;;;5076657;28;21599;-69
2023/12/28 08:11:03;;;;;;;4.00;3.70;;;;;;;;;;5077488;28;20448;-68
2023/12/28 08:13:30;;;;;;;4.30;3.90;;;;;;;;;;5069500;28;20507;-68
2023/12/28 08:15:56;;;;;;;4.20;3.70;;;;;;;;;;5070296;28;20523;-68
2023/12/28 08:18:22;;;;;;;6.33;4.10;;;;;;;;;;5073806;28;20479;-67
2023/12/28 08:20:49;;;;;;;3.80;3.50;;;;;;;;;;5076194;28;20480;-68
2023/12/28 08:23:16;;;;;;;5.37;4.07;;;;;;;;;;5070429;28;20532;-68
2023/12/28 08:25:44;;;;;;;8.53;3.60;;;;;;;;;;5070263;28;20524;-68
2023/12/28 08:28:10;;;;;;;4.53;3.50;;;;;;;;;;5070301;28;20460;-69
2023/12/28 08:30:36;;;;;;;3.90;3.50;;;;;;;;;;5077545;28;20448;-70
2023/12/28 08:33:04;;;;;;;3.80;3.60;;;;;;;;;;5077623;28;21095;-68
2023/12/28 08:35:30;;;;;;;4.27;3.87;;;;;;;;;;5077581;28;20476;-68
2023/12/28 08:37:56;;;;;;;4.27;3.97;;;;;;;;;;5077009;28;20526;-68
2023/12/28 08:40:23;;;;;;;3.90;3.60;;;;;;;;;;5071683;28;20527;-69
2023/12/28 08:42:50;;;;;;;4.67;4.27;;;;;;;;;;5070044;28;20458;-69
2023/12/28 08:45:17;;;;;;;7.03;3.90;;;;;;;;;;5068788;28;20449;-70
2023/12/28 08:47:43;;;;;;;3.83;3.20;;;;;;;;;;5067430;28;20507;-68
2023/12/28 08:50:10;;;;;;;4.40;4.10;;;;;;;;;;5072513;28;20517;-68
2023/12/28 08:52:36;;;;;;;5.00;3.90;;;;;;;;;;5071909;28;20542;-70
2023/12/28 08:55:03;;;;;;;4.90;4.30;;;;;;;;;;5069134;28;20552;-68
2023/12/28 08:57:29;;;;;;;4.13;3.73;;;;;;;;;;5060734;28;20496;-70
2023/12/28 08:59:57;;;;;;;3.83;3.57;;;;;;;;;;5069105;28;20550;-69
2023/12/28 09:02:23;;;;;;;4.00;3.70;;;;;;;;;;5071946;28;20432;-69
2023/12/28 09:04:50;;;;;;;5.93;3.70;;;;;;;;;;5065510;28;20465;-69
2023/12/28 09:07:16;;;;;;;5.03;4.03;;;;;;;;;;5045058;28;20547;-69
2023/12/28 09:09:43;;;;;;;5.17;4.13;;;;;;;;;;5045136;28;20498;-69
2023/12/28 09:12:09;;;;;;;4.30;3.80;;;;;;;;;;5044092;28;20452;-69
2023/12/28 09:14:35;;;;;;;4.20;3.80;;;;;;;;;;5049968;28;20564;-68
2023/12/28 09:17:03;;;;;;;5.33;4.40;;;;;;;;;;5047073;28;20440;-68
2023/12/28 09:19:30;;;;;;;3.97;3.67;;;;;;;;;;5043277;28;20525;-68
2023/12/28 09:21:56;;;;;;;4.40;4.00;;;;;;;;;;5044262;28;20537;-68
2023/12/28 09:24:23;;;;;;;5.13;4.30;;;;;;;;;;5047637;28;20460;-68
2023/12/28 09:26:49;;;;;;;5.93;4.20;;;;;;;;;;5046025;28;20498;-68
2023/12/28 09:29:15;;;;;;;4.30;4.00;;;;;;;;;;5048079;28;20525;-69
2023/12/28 09:31:42;;;;;;;4.30;3.90;;;;;;;;;;5050184;28;20442;-68
2023/12/28 09:34:09;;;;;;;5.03;4.50;;;;;;;;;;5050430;28;20496;-68
2023/12/28 09:36:36;;;;;;;4.37;4.17;;;;;;;;;;5049353;28;20445;-68
2023/12/28 09:39:03;;;;;;;5.57;4.77;;;;;;;;;;5047736;28;21066;-68
2023/12/28 09:41:32;;;;;;;7.73;4.83;;;;;;;;;;5049040;28;21001;-68
2023/12/28 09:44:01;;;;;;;5.00;4.40;;;;;;;;;;5045326;28;20528;-68
2023/12/28 09:46:27;;;;;;;4.63;4.23;;;;;;;;;;5046516;28;20458;-75
2023/12/28 09:48:56;;;;;;;4.00;3.70;;;;;;;;;;5046756;28;20515;-75
2023/12/28 09:51:23;;;;;;;4.40;4.10;;;;;;;;;;5052295;28;20473;-72
2023/12/28 09:53:50;;;;;;;5.23;4.70;;;;;;;;;;5051881;28;20464;-74
2023/12/28 09:56:17;;;;;;;5.00;4.47;;;;;;;;;;5045291;28;20536;-74
2023/12/28 09:58:44;;;;;;;4.17;3.80;;;;;;;;;;5055616;28;20484;-74
2023/12/28 10:01:11;;;;;;;8.93;4.40;;;;;;;;;;5042680;28;20513;-74
2023/12/28 10:03:37;;;;;;;5.20;4.80;;;;;;;;;;5052447;28;20576;-74
2023/12/28 10:06:04;;;;;;;5.63;4.37;;;;;;;;;;5060803;28;20547;-73
2023/12/28 10:08:32;;;;;;;5.30;4.53;;;;;;;;;;5070459;28;20452;-74
2023/12/28 10:10:58;;;;;;;10.73;4.90;;;;;;;;;;5080751;28;20479;-74
2023/12/28 10:13:26;;;;;;;4.23;3.83;;;;;;;;;;5080153;28;20472;-74
2023/12/28 10:15:52;;;;;;;5.43;4.87;;;;;;;;;;5078162;28;20487;-73
2023/12/28 10:18:20;;;;;;;6.93;4.87;;;;;;;;;;5069066;28;20542;-76
2023/12/28 10:20:50;;;;;;;5.10;4.67;;;;;;;;;;5076543;28;20938;-73
2023/12/28 10:23:16;;;;;;;5.33;4.80;;;;;;;;;;5075365;28;20459;-76
2023/12/28 10:25:45;;;;;;;5.60;4.10;;;;;;;;;;5073189;28;20476;-75
2023/12/28 10:28:12;;;;;;;7.83;4.23;;;;;;;;;;5077486;28;20451;-73
2023/12/28 10:30:42;;;;;;;5.10;4.50;;;;;;;;;;5072351;28;20462;-78
2023/12/28 10:33:08;;;;;;;7.00;4.43;;;;;;;;;;5076871;28;20459;-75
2023/12/28 10:35:34;;;;;;;4.77;4.37;;;;;;;;;;5073633;28;20579;-76
2023/12/28 10:38:02;;;;;;;8.40;3.70;;;;;;;;;;5072843;28;20484;-77
2023/12/28 10:40:30;;;;;;;5.80;3.97;;;;;;;;;;5070803;28;21018;-76
2023/12/28 10:43:01;;;;;;;4.20;3.90;;;;;;;;;;5068450;28;20456;-75
2023/12/28 10:45:29;;;;;;;5.77;4.40;;;;;;;;;;5073655;28;20461;-76
2023/12/28 10:48:05;;;;;;;6.50;4.10;;;;;;;;;;5076183;28;20540;-76
2023/12/28 10:50:36;;;;;;;4.93;4.17;;;;;;;;;;5078089;28;20567;-75
2023/12/28 10:53:08;;;;;;;4.67;4.30;;;;;;;;;;5079354;28;20483;-76
2023/12/28 10:55:39;;;;;;;6.80;4.60;;;;;;;;;;5076177;28;21091;-76
2023/12/28 10:58:10;;;;;;;5.83;4.40;;;;;;;;;;5078837;28;20511;-78
2023/12/28 11:00:39;;;;;;;5.87;3.90;;;;;;;;;;5078955;28;20482;-76
2023/12/28 11:03:07;;;;;;;11.90;4.30;;;;;;;;;;5067648;28;20471;-75
2023/12/28 11:05:33;;;;;;;7.53;4.70;;;;;;;;;;5061420;28;20495;-76
2023/12/28 11:08:00;;;;;;;6.97;4.70;;;;;;;;;;5075960;28;20488;-76
2023/12/28 11:10:27;;;;;;;8.37;4.40;;;;;;;;;;5077448;28;20463;-77
2023/12/28 11:12:54;;;;;;;4.30;3.90;;;;;;;;;;5071930;28;20529;-78
2023/12/28 11:15:23;;;;;;;5.33;4.07;;;;;;;;;;5075069;28;20583;-76
2023/12/28 11:17:49;;;;;;;7.77;4.60;;;;;;;;;;5077882;28;20444;-76
2023/12/28 11:20:16;;;;;;;9.77;4.73;;;;;;;;;;5077228;28;20496;-76
2023/12/28 11:22:43;;;;;;;4.73;4.37;;;;;;;;;;5071387;28;21083;-75
2023/12/28 11:25:15;;;;;;;6.37;5.20;;;;;;;;;;5077493;28;20459;-76
2023/12/28 11:27:41;;;;;;;5.63;4.30;;;;;;;;;;5073743;28;20540;-79
2023/12/28 11:30:11;;;;;;;7.23;4.63;;;;;;;;;;5073613;28;20571;-78
2023/12/28 11:32:39;;;;;;;6.67;4.70;;;;;;;;;;5075989;28;20530;-77
2023/12/28 11:35:09;;;;;;;5.03;4.50;;;;;;;;;;5076646;28;20480;-78
2023/12/28 11:37:38;;;;;;;5.97;4.00;;;;;;;;;;5074306;28;20502;-76
2023/12/28 11:40:10;;;;;;;7.93;3.67;;;;;;;;;;5075915;28;20469;-75
2023/12/28 11:42:37;;;;;;;4.70;3.83;;;;;;;;;;5077659;28;20448;-73
2023/12/28 11:45:04;;;;;;;7.77;4.40;;;;;;;;;;5077478;28;20460;-73
2023/12/28 11:47:30;;;;;;;10.53;5.17;;;;;;;;;;5078235;28;20464;-74
2023/12/28 11:50:06;;;;;;;7.20;5.20;;;;;;;;;;5077763;28;20487;-71
2023/12/28 11:52:34;;;;;;;6.80;6.13;;;;;;;;;;5078428;28;20459;-70
2023/12/28 11:55:00;;;;;;;6.13;5.10;;;;;;;;;;5076298;28;20475;-74
2023/12/28 11:57:27;;;;;;;6.40;5.80;;;;;;;;;;5073921;28;20490;-72
2023/12/28 11:59:54;;;;;;;8.83;5.47;;;;;;;;;;5071636;28;20901;-74
2023/12/28 12:02:21;;;;;;;9.30;6.33;;;;;;;;;;5074258;28;21001;-65
2023/12/28 12:04:47;;;;;;;6.73;5.83;;;;;;;;;;5077402;28;20499;-65
2023/12/28 12:07:15;;;;;;;10.43;5.97;;;;;;;;;;5077097;28;20912;-66
2023/12/28 12:09:42;;;;;;;7.00;5.20;;;;;;;;;;5071372;28;20501;-65
2023/12/28 12:12:08;;;;;;;6.17;5.67;;;;;;;;;;5072942;28;20519;-65
2023/12/28 12:14:35;;;;;;;6.07;5.37;;;;;;;;;;5066855;28;20508;-65
2023/12/28 12:17:01;;;;;;;6.80;5.57;;;;;;;;;;5068281;28;20536;-65
2023/12/28 12:19:29;;;;;;;5.63;5.23;;;;;;;;;;5069116;28;20552;-65
2023/12/28 12:21:55;;;;;;;6.93;5.00;;;;;;;;;;5072816;28;20447;-66
2023/12/28 12:24:24;;;;;;;11.93;7.23;;;;;;;;;;5066816;28;20458;-66
2023/12/28 12:26:51;;;;;;;7.90;5.10;;;;;;;;;;5072226;28;20475;-66
2023/12/28 12:29:17;;;;;;;7.67;5.43;;;;;;;;;;5065730;28;20480;-65
2023/12/28 12:31:44;;;;;;;9.80;5.67;;;;;;;;;;5063167;28;20459;-66
2023/12/28 12:34:11;;;;;;;7.50;5.03;;;;;;;;;;5070028;28;20521;-65
2023/12/28 12:36:37;;;;;;;7.33;5.27;;;;;;;;;;5075862;28;20584;-65
2023/12/28 12:39:05;;;;;;;5.20;4.83;;;;;;;;;;5075994;28;20507;-65
2023/12/28 12:41:33;;;;;;;5.20;4.30;;;;;;;;;;5074176;28;20456;-66
2023/12/28 12:44:00;;;;;;;8.67;4.70;;;;;;;;;;5071229;28;20476;-65
2023/12/28 12:46:27;;;;;;;8.57;4.70;;;;;;;;;;5074750;28;20546;-65
2023/12/28 12:48:57;;;;;;;10.27;5.53;;;;;;;;;;5076476;28;20515;-79
2023/12/28 12:51:23;;;;;;;5.03;4.53;;;;;;;;;;5070167;28;20452;-78
2023/12/28 12:53:50;;;;;;;6.83;5.17;;;;;;;;;;5064453;28;20532;-76
2023/12/28 12:56:17;;;;;;;6.60;5.10;;;;;;;;;;5074822;28;20496;-77
2023/12/28 12:58:46;;;;;;;6.80;4.67;;;;;;;;;;5072924;28;20525;-77
2023/12/28 13:01:12;;;;;;;9.10;4.40;;;;;;;;;;5065196;28;20980;-74
2023/12/28 13:03:39;;;;;;;8.70;5.00;;;;;;;;;;5075916;28;20444;-75
2023/12/28 13:06:05;;;;;;;6.33;4.60;;;;;;;;;;5075836;28;20483;-75
2023/12/28 13:08:32;;;;;;;8.93;4.70;;;;;;;;;;5071882;28;20471;-77
2023/12/28 13:10:58;;;;;;;5.00;3.67;;;;;;;;;;5074152;28;20559;-76
2023/12/28 13:13:24;;;;;;;5.20;4.00;;;;;;;;;;5070687;28;20440;-78
2023/12/28 13:15:52;;;;;;;6.33;5.47;;;;;;;;;;5067450;28;20510;-73
2023/12/28 13:18:19;;;;;;;5.57;5.07;;;;;;;;;;5068528;28;20468;-80
2023/12/28 13:20:45;;;;;;;6.33;5.37;;;;;;;;;;5070344;28;20456;-71
2023/12/28 13:23:12;;;;;;;8.10;5.90;;;;;;;;;;5073497;28;20452;-72
2023/12/28 13:25:38;;;;;;;5.03;4.63;;;;;;;;;;5069990;28;20921;-74
2023/12/28 13:28:05;;;;;;;5.37;4.97;;;;;;;;;;5075527;28;20440;-72
2023/12/28 13:30:31;;;;;;;8.27;4.93;;;;;;;;;;5074121;28;20464;-76
2023/12/28 13:33:00;;;;;;;5.40;5.00;;;;;;;;;;5074481;28;20516;-77
2023/12/28 13:35:26;;;;;;;9.63;5.23;;;;;;;;;;5073980;28;20467;-73
2023/12/28 13:37:52;;;;;;;8.80;5.47;;;;;;;;;;5072682;28;20562;-73
2023/12/28 13:40:19;;;;;;;6.10;5.50;;;;;;;;;;5072793;28;20532;-73
2023/12/28 13:42:45;;;;;;;9.07;5.50;;;;;;;;;;5071307;28;20966;-74
2023/12/28 13:45:12;;;;;;;8.00;6.33;;;;;;;;;;5075216;28;20523;-74
2023/12/28 13:47:39;;;;;;;9.80;5.20;;;;;;;;;;5071814;28;20487;-77
2023/12/28 13:50:07;;;;;;;7.13;5.63;;;;;;;;;;5067996;28;20568;-69
2023/12/28 13:52:34;;;;;;;9.97;5.97;;;;;;;;;;5064507;28;20476;-69
2023/12/28 13:55:00;;;;;;;5.87;4.93;;;;;;;;;;5063149;28;20460;-68
2023/12/28 13:57:27;;;;;;;5.83;4.87;;;;;;;;;;5065587;28;20785;-72
2023/12/28 13:59:59;;;;;;;8.07;4.40;;;;;;;;;;5065962;28;20474;-77
2023/12/28 14:02:26;;;;;;;7.50;4.33;;;;;;;;;;5065629;28;20448;-80
2023/12/28 14:04:54;;;;;;;4.60;4.20;;;;;;;;;;5061635;28;20452;-79
2023/12/28 14:07:21;;;;;;;6.83;4.27;;;;;;;;;;5071359;28;20486;-78
2023/12/28 14:09:48;;;;;;;4.73;4.37;;;;;;;;;;5063665;28;20444;-79
2023/12/28 14:12:14;;;;;;;8.40;5.73;;;;;;;;;;5064734;28;20437;-80
2023/12/28 14:14:41;;;;;;;6.17;5.67;;;;;;;;;;5062895;28;20552;-78
2023/12/28 14:17:07;;;;;;;6.63;6.00;;;;;;;;;;5064800;28;20575;-80
2023/12/28 14:19:34;;;;;;;7.67;5.97;;;;;;;;;;5063305;28;20445;-76
2023/12/28 14:22:00;;;;;;;6.50;6.00;;;;;;;;;;5060536;28;21097;-75
2023/12/28 14:24:29;;;;;;;7.80;5.37;;;;;;;;;;5063065;28;20821;-79
2023/12/28 14:26:55;;;;;;;5.80;5.27;;;;;;;;;;5066110;28;20445;-76
2023/12/28 14:29:22;;;;;;;11.80;5.00;;;;;;;;;;5060556;28;20560;-78
2023/12/28 14:31:49;;;;;;;12.47;5.50;;;;;;;;;;5067367;28;20444;-75
2023/12/28 14:34:16;;;;;;;6.13;5.13;;;;;;;;;;5067695;28;20452;-81
2023/12/28 14:36:42;;;;;;;9.37;5.30;;;;;;;;;;5063319;28;20567;-76
2023/12/28 14:39:09;;;;;;;6.03;5.20;;;;;;;;;;5061409;28;20483;-76
2023/12/28 14:41:37;;;;;;;7.37;4.37;;;;;;;;;;5069691;28;20448;-78